Terminal Aerodrome Forecast
Issued by NWS

Home | Current Version | Previous Version | Text Only | Print | Product List | Glossary On
Versions: 1 2 3 4 5 6 7 8 9 10 11 12 13 14 15
231
FTUS44 KCRP 272331
TAFALI
TAF
KALI 272331Z 2800/2824 14009KT P6SM SCT250
     FM280900 VRB03KT P6SM FEW012
     FM281500 17009KT P6SM SCT030=

USA.gov is the U.S. government's official web portal to all federal, state and local government web resources and services.